Time;durP1;ratioP1;P1;durP2;ratioP2;P2;SDS_P1;SDS_P2;PMS_P1;PMS_P2;Temp;Humidity;BMP_temperature;BMP_pressure;BME280_temperature;BME280_humidity;BME280_pressure;Samples;Min_cycle;Max_cycle;Signal;HPM_P1;HPM_P2
2021/03/29 00:02:24;;;;;;;13.07;6.60;;;9.60;99.90;;;;;;4933228;29;20306;-82
2021/03/29 00:05:12;;;;;;;12.93;6.00;;;9.60;99.90;;;;;;4933619;29;20227;-82
2021/03/29 00:08:01;;;;;;;15.50;6.03;;;9.50;99.90;;;;;;4938259;29;20270;-81
2021/03/29 00:10:52;;;;;;;11.87;5.77;;;9.50;99.90;;;;;;4936906;29;20307;-83
2021/03/29 00:13:39;;;;;;;13.67;5.40;;;9.50;99.90;;;;;;4924219;29;20240;-82
2021/03/29 00:16:24;;;;;;;13.97;5.13;;;9.50;99.90;;;;;;4934668;29;20254;-81
2021/03/29 00:19:10;;;;;;;9.87;4.83;;;9.50;99.90;;;;;;4926681;29;20629;-81
2021/03/29 00:21:56;;;;;;;13.87;4.23;;;9.40;99.90;;;;;;4926116;29;20231;-80
2021/03/29 00:24:42;;;;;;;14.67;5.60;;;9.40;99.90;;;;;;4936301;29;20295;-83
2021/03/29 00:27:27;;;;;;;11.97;5.10;;;9.40;99.90;;;;;;4937257;29;20278;-81
2021/03/29 00:30:15;;;;;;;14.00;4.40;;;9.40;99.90;;;;;;4931695;29;20302;-82
2021/03/29 00:33:01;;;;;;;13.87;5.00;;;9.30;99.90;;;;;;4929084;29;20243;-82
2021/03/29 00:35:48;;;;;;;16.83;5.40;;;9.30;99.90;;;;;;4934718;29;20222;-84
2021/03/29 00:38:37;;;;;;;13.30;5.90;;;9.30;99.90;;;;;;4925168;29;20215;-80
2021/03/29 00:41:23;;;;;;;19.07;5.73;;;9.30;99.90;;;;;;4922773;29;20338;-82
2021/03/29 00:44:10;;;;;;;18.27;6.27;;;9.30;99.90;;;;;;4927924;29;20719;-81
2021/03/29 00:46:56;;;;;;;19.40;6.27;;;9.30;99.90;;;;;;4932536;29;20251;-81
2021/03/29 00:49:41;;;;;;;15.00;5.77;;;9.30;99.90;;;;;;4931070;29;20260;-82
2021/03/29 00:52:28;;;;;;;17.50;5.60;;;9.30;99.90;;;;;;4934836;29;20241;-82
2021/03/29 00:55:13;;;;;;;20.67;6.13;;;9.30;99.90;;;;;;4927427;29;20928;-82
2021/03/29 00:57:59;;;;;;;12.43;5.83;;;9.30;99.90;;;;;;4925864;29;20703;-82
2021/03/29 01:00:47;;;;;;;16.23;7.07;;;9.30;99.90;;;;;;4929783;29;20235;-82
2021/03/29 01:03:35;;;;;;;16.50;6.37;;;9.30;99.90;;;;;;4935079;29;20229;-82
2021/03/29 01:06:22;;;;;;;12.33;5.87;;;9.30;99.90;;;;;;4934879;29;20204;-81
2021/03/29 01:09:09;;;;;;;18.13;6.90;;;9.40;99.90;;;;;;4928041;29;20223;-82
2021/03/29 01:11:57;;;;;;;16.93;6.87;;;9.30;99.90;;;;;;4932736;29;20320;-82
2021/03/29 01:14:48;;;;;;;14.40;5.87;;;9.40;99.90;;;;;;4933604;29;20227;-82
2021/03/29 01:17:35;;;;;;;13.90;7.07;;;9.40;99.90;;;;;;4931486;29;20293;-82
2021/03/29 01:20:32;;;;;;;11.40;5.20;;;9.40;99.90;;;;;;4926577;29;20767;-82
2021/03/29 01:23:20;;;;;;;13.37;6.30;;;9.40;99.90;;;;;;4928587;29;20643;-82
2021/03/29 01:26:13;;;;;;;16.30;5.73;;;9.40;99.90;;;;;;4930919;29;20218;-82
2021/03/29 01:28:59;;;;;;;17.93;6.10;;;9.40;99.90;;;;;;4941686;29;20223;-79
2021/03/29 01:31:45;;;;;;;13.97;6.37;;;9.40;99.90;;;;;;4957284;29;20207;-80
2021/03/29 01:34:36;;;;;;;9.83;4.70;;;9.40;99.90;;;;;;4929724;29;20219;-82
2021/03/29 01:37:21;;;;;;;10.27;4.43;;;9.40;99.90;;;;;;4937122;29;20215;-81
2021/03/29 01:40:07;;;;;;;12.33;6.00;;;9.50;99.90;;;;;;4930377;29;20248;-81
2021/03/29 01:42:53;;;;;;;12.87;6.87;;;9.50;99.90;;;;;;4928276;29;20247;-82
2021/03/29 01:45:41;;;;;;;15.73;5.90;;;9.50;99.90;;;;;;4932331;29;20635;-82
2021/03/29 01:48:26;;;;;;;16.33;6.57;;;9.50;99.90;;;;;;4934131;29;20218;-83
2021/03/29 01:51:13;;;;;;;12.83;6.83;;;9.50;99.90;;;;;;4927069;29;20368;-82
2021/03/29 01:53:59;;;;;;;12.73;6.10;;;9.50;99.90;;;;;;4929416;29;20255;-83
2021/03/29 01:56:45;;;;;;;14.23;5.93;;;9.50;99.90;;;;;;4929197;29;20302;-83
2021/03/29 01:59:30;;;;;;;14.17;6.33;;;9.50;99.90;;;;;;4926298;29;20280;-83
2021/03/29 02:02:16;;;;;;;13.63;5.33;;;9.50;99.90;;;;;;4929270;29;21915;-83
2021/03/29 02:05:01;;;;;;;18.00;6.93;;;9.50;99.90;;;;;;4925001;29;20291;-83
2021/03/29 02:07:47;;;;;;;10.40;4.87;;;9.50;99.90;;;;;;4924661;29;20231;-82
2021/03/29 02:10:35;;;;;;;13.80;6.27;;;9.50;99.90;;;;;;4926168;29;20215;-82
2021/03/29 02:13:26;;;;;;;11.47;5.83;;;9.50;99.90;;;;;;4934224;29;20294;-83
2021/03/29 02:16:14;;;;;;;10.83;5.17;;;9.60;99.90;;;;;;4935761;29;20339;-83
2021/03/29 02:19:02;;;;;;;16.90;7.17;;;9.60;99.90;;;;;;4922658;29;20215;-83
2021/03/29 02:21:48;;;;;;;11.93;5.03;;;9.60;99.90;;;;;;4928199;29;20271;-83
2021/03/29 02:24:34;;;;;;;16.67;6.87;;;9.60;99.90;;;;;;4935166;29;20556;-83
2021/03/29 02:27:19;;;;;;;13.40;6.27;;;9.60;99.90;;;;;;4931848;29;20210;-82
2021/03/29 02:30:09;;;;;;;13.80;7.40;;;9.60;99.90;;;;;;4924373;29;20578;-82
2021/03/29 02:32:54;;;;;;;21.07;7.20;;;9.60;99.90;;;;;;4927413;29;20417;-82
2021/03/29 02:35:41;;;;;;;14.70;7.27;;;9.60;99.90;;;;;;4932103;29;20284;-82
2021/03/29 02:38:27;;;;;;;14.67;7.03;;;9.60;99.90;;;;;;4928114;29;20568;-83
2021/03/29 02:41:12;;;;;;;14.53;6.63;;;9.60;99.90;;;;;;4932493;29;20222;-82
2021/03/29 02:43:58;;;;;;;14.93;7.07;;;9.60;99.90;;;;;;4924354;29;20707;-82
2021/03/29 02:46:44;;;;;;;14.20;6.80;;;9.60;99.90;;;;;;4924504;29;20755;-81
2021/03/29 02:49:31;;;;;;;16.37;7.53;;;9.60;99.90;;;;;;4925052;29;20216;-82
2021/03/29 02:52:17;;;;;;;10.93;6.53;;;9.60;99.90;;;;;;4921325;28;20357;-83
2021/03/29 02:55:06;;;;;;;15.23;7.20;;;9.60;99.90;;;;;;4923742;29;20211;-82
2021/03/29 02:57:54;;;;;;;13.60;7.50;;;9.60;99.90;;;;;;4924481;29;20693;-82
2021/03/29 03:00:40;;;;;;;16.37;6.77;;;9.60;99.90;;;;;;4922031;29;20589;-82
2021/03/29 03:03:25;;;;;;;14.83;6.27;;;9.60;99.90;;;;;;4925953;29;20227;-82
2021/03/29 03:06:11;;;;;;;14.03;7.20;;;9.60;99.90;;;;;;4934169;29;20249;-82
2021/03/29 03:09:00;;;;;;;15.53;6.33;;;9.60;99.90;;;;;;4932635;29;20272;-82
2021/03/29 03:11:46;;;;;;;18.77;6.03;;;9.50;99.90;;;;;;4926208;29;20262;-83
2021/03/29 03:14:31;;;;;;;14.73;6.57;;;9.50;99.90;;;;;;4932682;29;20775;-83
2021/03/29 03:17:16;;;;;;;14.83;6.87;;;9.50;99.90;;;;;;4933755;29;20226;-82
2021/03/29 03:20:02;;;;;;;12.63;6.07;;;9.50;99.90;;;;;;4928352;29;20202;-82
2021/03/29 03:22:51;;;;;;;14.17;6.27;;;9.50;99.90;;;;;;4940790;29;20236;-81
2021/03/29 03:25:39;;;;;;;9.87;5.50;;;9.50;99.90;;;;;;4939643;29;20188;-80
2021/03/29 03:28:26;;;;;;;13.17;5.77;;;9.40;99.90;;;;;;4942128;29;20191;-81
2021/03/29 03:31:11;;;;;;;12.83;5.60;;;9.40;99.90;;;;;;4949186;29;20315;-81
2021/03/29 03:33:56;;;;;;;15.20;6.57;;;9.40;99.90;;;;;;4931544;29;20203;-82
2021/03/29 03:36:43;;;;;;;15.73;5.50;;;9.30;99.90;;;;;;4943866;29;20299;-81
2021/03/29 03:39:29;;;;;;;15.30;5.37;;;9.40;99.90;;;;;;4930996;29;20206;-83
2021/03/29 03:42:17;;;;;;;14.73;5.33;;;9.30;99.90;;;;;;4936322;29;20230;-83
2021/03/29 03:45:04;;;;;;;11.53;5.93;;;9.30;99.90;;;;;;4932438;29;20207;-83
2021/03/29 03:47:50;;;;;;;12.93;6.07;;;9.30;99.90;;;;;;4928616;29;20324;-83
2021/03/29 03:50:35;;;;;;;11.77;5.67;;;9.30;99.90;;;;;;4929679;29;20269;-84
2021/03/29 03:53:21;;;;;;;14.97;5.73;;;9.30;99.90;;;;;;4911455;29;533126;-83
2021/03/29 03:56:07;;;;;;;10.17;4.73;;;9.30;99.90;;;;;;4922723;29;20227;-83
2021/03/29 03:58:54;;;;;;;10.97;4.60;;;9.30;99.90;;;;;;4932876;29;20218;-82
2021/03/29 04:01:51;;;;;;;8.90;4.50;;;9.30;99.90;;;;;;4941049;29;20238;-81
2021/03/29 04:04:36;;;;;;;13.53;5.40;;;9.30;99.90;;;;;;4938000;29;20227;-82
2021/03/29 04:07:21;;;;;;;13.93;5.27;;;9.30;99.90;;;;;;4941345;29;20210;-79
2021/03/29 04:10:13;;;;;;;11.60;5.07;;;9.30;99.90;;;;;;4937425;29;20699;-82
2021/03/29 04:12:58;;;;;;;12.07;6.03;;;9.30;99.90;;;;;;4932494;29;20311;-81
2021/03/29 04:15:44;;;;;;;12.40;5.50;;;9.30;99.90;;;;;;4940827;29;20203;-82
2021/03/29 04:18:29;;;;;;;10.37;5.20;;;9.20;99.90;;;;;;4938057;29;20214;-82
2021/03/29 04:21:14;;;;;;;11.67;6.20;;;9.20;99.90;;;;;;4933587;29;20246;-82
2021/03/29 04:24:00;;;;;;;13.47;5.07;;;9.20;99.90;;;;;;4932982;29;20711;-81
2021/03/29 04:26:45;;;;;;;16.20;5.67;;;9.20;99.90;;;;;;4937590;29;20255;-82
2021/03/29 04:29:30;;;;;;;9.83;5.37;;;9.20;99.90;;;;;;4940337;29;20206;-82
2021/03/29 04:32:16;;;;;;;10.13;4.40;;;9.20;99.90;;;;;;4942046;29;20768;-81
2021/03/29 04:35:00;;;;;;;16.10;4.87;;;9.20;99.90;;;;;;4935571;29;20218;-82
2021/03/29 04:37:45;;;;;;;14.57;5.67;;;9.10;99.90;;;;;;4935756;29;20246;-82
2021/03/29 04:40:31;;;;;;;9.70;4.40;;;9.20;99.90;;;;;;4938527;29;20228;-80
2021/03/29 04:43:16;;;;;;;13.30;5.10;;;9.20;99.90;;;;;;4939518;29;20620;-82
2021/03/29 04:46:00;;;;;;;11.53;4.50;;;9.30;99.90;;;;;;4938068;29;20219;-82
2021/03/29 04:48:47;;;;;;;16.13;4.40;;;9.30;99.90;;;;;;4929125;29;20199;-82
2021/03/29 04:51:32;;;;;;;10.33;4.77;;;9.30;99.90;;;;;;4929246;29;20255;-82
2021/03/29 04:54:17;;;;;;;12.07;5.00;;;9.30;99.90;;;;;;4934112;29;20203;-81
2021/03/29 04:57:02;;;;;;;8.07;4.67;;;9.30;99.90;;;;;;4935461;29;20222;-81
2021/03/29 04:59:47;;;;;;;9.93;4.17;;;9.30;99.90;;;;;;4930457;29;20595;-81
2021/03/29 05:02:32;;;;;;;12.23;5.20;;;9.40;99.90;;;;;;4928605;29;20222;-81
2021/03/29 05:05:17;;;;;;;10.47;4.73;;;9.40;99.90;;;;;;4926658;29;20219;-82
2021/03/29 05:08:03;;;;;;;8.67;4.77;;;9.40;99.90;;;;;;4934038;29;20600;-81
2021/03/29 05:10:47;;;;;;;9.40;5.13;;;9.30;99.90;;;;;;4930845;29;20242;-82
2021/03/29 05:13:32;;;;;;;10.00;5.23;;;9.40;99.90;;;;;;4932729;29;20673;-82
2021/03/29 05:16:17;;;;;;;11.80;5.13;;;9.40;99.90;;;;;;4934440;29;20234;-82
2021/03/29 05:19:02;;;;;;;9.80;4.70;;;9.40;99.90;;;;;;4936163;29;20260;-81
2021/03/29 05:21:47;;;;;;;11.40;4.27;;;9.50;99.90;;;;;;4936622;29;20242;-82
2021/03/29 05:24:33;;;;;;;11.93;5.30;;;9.40;99.90;;;;;;4935883;29;20200;-82
2021/03/29 05:27:18;;;;;;;14.27;4.90;;;9.40;99.90;;;;;;4934188;29;20235;-80
2021/03/29 05:30:04;;;;;;;9.03;4.93;;;9.40;99.90;;;;;;4938888;29;20266;-79
2021/03/29 05:32:49;;;;;;;12.03;4.00;;;9.40;99.90;;;;;;4935262;29;20223;-81
2021/03/29 05:35:34;;;;;;;11.83;4.43;;;9.40;99.90;;;;;;4936306;29;20209;-81
2021/03/29 05:38:19;;;;;;;10.63;3.67;;;9.40;99.90;;;;;;4941327;29;20239;-80
2021/03/29 05:41:04;;;;;;;12.03;4.50;;;9.40;99.90;;;;;;4934006;29;20561;-82
2021/03/29 05:43:50;;;;;;;9.90;4.67;;;9.40;99.90;;;;;;4937888;29;20320;-83
2021/03/29 05:46:37;;;;;;;11.13;4.03;;;9.40;99.90;;;;;;4939517;29;20241;-83
2021/03/29 05:49:22;;;;;;;9.40;4.30;;;9.40;99.90;;;;;;4940131;29;20211;-81
2021/03/29 05:52:07;;;;;;;13.80;4.97;;;9.40;99.90;;;;;;4933446;29;20619;-83
2021/03/29 05:54:55;;;;;;;13.60;4.57;;;9.40;99.90;;;;;;4933302;29;20267;-83
2021/03/29 05:58:05;;;;;;;13.10;4.23;;;9.40;99.90;;;;;;4927844;29;20350;-81
2021/03/29 06:00:45;;;;;;;10.57;4.80;;;9.40;99.90;;;;;;4930287;29;20254;-81
2021/03/29 06:03:34;;;;;;;9.00;3.97;;;9.40;99.90;;;;;;4928557;29;20254;-82
2021/03/29 06:06:20;;;;;;;8.00;3.60;;;9.50;99.90;;;;;;4932818;29;20606;-83
2021/03/29 06:09:06;;;;;;;13.40;4.57;;;9.50;99.90;;;;;;4942437;29;20290;-83
2021/03/29 06:11:52;;;;;;;9.30;4.07;;;9.50;99.90;;;;;;4937567;29;20246;-83
2021/03/29 06:14:37;;;;;;;8.90;3.60;;;9.50;99.90;;;;;;4937972;29;20242;-82
2021/03/29 06:17:22;;;;;;;11.70;4.63;;;9.60;99.90;;;;;;4940990;29;20265;-81
2021/03/29 06:20:29;;;;;;;10.03;4.33;;;9.60;99.90;;;;;;4936336;29;20290;-83
2021/03/29 06:23:14;;;;;;;15.10;5.20;;;9.70;99.90;;;;;;4937410;29;20274;-82
2021/03/29 06:26:19;;;;;;;7.10;2.93;;;9.60;99.90;;;;;;4935916;29;20222;-80
2021/03/29 06:29:19;;;;;;;11.10;3.10;;;9.60;99.90;;;;;;4933489;29;20210;-80
2021/03/29 06:32:04;;;;;;;10.10;4.47;;;9.70;99.90;;;;;;4935404;29;20251;-82
2021/03/29 06:34:49;;;;;;;9.17;3.90;;;9.70;99.90;;;;;;4936150;29;20211;-82
2021/03/29 06:37:34;;;;;;;11.97;4.20;;;9.70;99.90;;;;;;4924208;29;20230;-81
2021/03/29 06:40:19;;;;;;;13.63;4.70;;;9.70;99.90;;;;;;4924217;29;20258;-82
2021/03/29 06:43:25;;;;;;;8.07;4.13;;;9.70;99.90;;;;;;4928403;29;20246;-81
2021/03/29 06:46:21;;;;;;;11.47;4.70;;;9.70;99.90;;;;;;4930397;29;20255;-81
2021/03/29 06:49:06;;;;;;;7.93;3.87;;;9.80;99.90;;;;;;4933280;29;20306;-79
2021/03/29 06:51:50;;;;;;;11.00;4.50;;;9.80;99.90;;;;;;4935479;28;20258;-81
2021/03/29 06:54:35;;;;;;;11.77;5.27;;;9.80;99.90;;;;;;4929059;29;20207;-82
2021/03/29 06:57:27;;;;;;;10.70;5.10;;;9.80;99.90;;;;;;4929429;29;20279;-82
2021/03/29 07:00:14;;;;;;;10.70;4.17;;;9.80;99.90;;;;;;4919250;29;20199;-81
2021/03/29 07:03:02;;;;;;;11.60;5.40;;;9.80;99.90;;;;;;4921086;29;20218;-82
2021/03/29 07:05:49;;;;;;;10.00;4.20;;;9.80;99.90;;;;;;4924938;29;20219;-82
2021/03/29 07:08:34;;;;;;;12.47;4.13;;;9.80;99.90;;;;;;4925215;29;20272;-81
2021/03/29 07:11:21;;;;;;;8.47;3.93;;;9.90;99.90;;;;;;4923133;29;20691;-79
2021/03/29 07:14:07;;;;;;;12.57;4.40;;;9.90;99.90;;;;;;4930567;29;20255;-82
2021/03/29 07:16:53;;;;;;;17.67;4.40;;;9.90;99.90;;;;;;4926594;29;20275;-82
2021/03/29 07:19:39;;;;;;;11.77;4.03;;;9.90;99.90;;;;;;4928148;29;20238;-82
2021/03/29 07:22:24;;;;;;;10.50;4.43;;;10.00;99.90;;;;;;4929283;29;20812;-81
2021/03/29 07:25:11;;;;;;;13.97;4.57;;;10.00;99.90;;;;;;4934959;29;20211;-82
2021/03/29 07:27:58;;;;;;;14.30;4.63;;;10.00;99.90;;;;;;4934866;29;20203;-82
2021/03/29 07:30:48;;;;;;;11.37;3.73;;;10.10;99.90;;;;;;4929402;29;20242;-81
2021/03/29 07:33:51;;;;;;;13.37;4.63;;;10.10;99.90;;;;;;4930718;29;20752;-82
2021/03/29 07:36:43;;;;;;;12.57;4.20;;;10.20;99.90;;;;;;4931167;29;20251;-82
2021/03/29 07:39:38;;;;;;;11.10;5.07;;;10.20;99.90;;;;;;4925432;29;20259;-81
2021/03/29 07:42:39;;;;;;;6.57;3.03;;;10.20;99.90;;;;;;4927230;29;20231;-82
2021/03/29 07:45:26;;;;;;;9.90;3.87;;;10.30;99.90;;;;;;4931227;29;20213;-80
2021/03/29 07:48:15;;;;;;;9.20;4.37;;;10.30;99.90;;;;;;4926857;29;20784;-82
2021/03/29 07:51:01;;;;;;;11.80;3.90;;;10.40;99.90;;;;;;4930752;29;20234;-82
2021/03/29 07:53:50;;;;;;;13.17;4.60;;;10.40;99.90;;;;;;4937652;29;20218;-81
2021/03/29 07:56:41;;;;;;;13.40;4.20;;;10.50;99.90;;;;;;4932575;29;20325;-82
2021/03/29 07:59:45;;;;;;;11.50;4.17;;;10.50;99.90;;;;;;4934272;29;20206;-83
2021/03/29 08:02:33;;;;;;;12.27;4.23;;;10.60;99.90;;;;;;4942472;29;20226;-80
2021/03/29 08:05:36;;;;;;;18.17;5.53;;;10.70;99.90;;;;;;4951079;29;20199;-81
2021/03/29 08:08:41;;;;;;;11.33;4.27;;;10.80;99.90;;;;;;4937911;29;20242;-81
2021/03/29 08:11:46;;;;;;;11.43;4.10;;;10.80;99.90;;;;;;4934594;29;20349;-82
2021/03/29 08:14:42;;;;;;;11.57;4.07;;;10.90;99.90;;;;;;4935491;29;20210;-84
2021/03/29 08:17:44;;;;;;;13.87;4.27;;;10.90;99.90;;;;;;4929410;29;20231;-81
2021/03/29 08:20:53;;;;;;;15.80;4.97;;;11.00;99.90;;;;;;4936431;29;20226;-83
2021/03/29 08:23:39;;;;;;;11.03;4.03;;;11.10;99.90;;;;;;4937979;29;20240;-84
2021/03/29 08:26:37;;;;;;;10.30;4.60;;;11.20;99.90;;;;;;4931927;29;20577;-81
2021/03/29 08:29:30;;;;;;;13.80;4.80;;;11.30;99.90;;;;;;4932755;29;20238;-81
2021/03/29 08:32:29;;;;;;;11.47;4.13;;;11.20;99.90;;;;;;4927906;29;20231;-83
2021/03/29 08:35:17;;;;;;;8.27;3.87;;;11.50;99.90;;;;;;4931802;29;20265;-83
2021/03/29 08:38:08;;;;;;;12.40;4.10;;;11.60;99.90;;;;;;4925891;29;20226;-81
2021/03/29 08:40:54;;;;;;;11.37;3.90;;;11.60;99.90;;;;;;4933417;29;20235;-82
2021/03/29 08:43:43;;;;;;;11.93;3.83;;;11.70;99.90;;;;;;4928256;29;20243;-82
2021/03/29 08:46:31;;;;;;;15.13;4.50;;;11.80;99.90;;;;;;4926739;29;20283;-81
2021/03/29 08:49:17;;;;;;;8.33;4.23;;;11.90;99.90;;;;;;4932108;29;20253;-83
2021/03/29 08:52:02;;;;;;;8.97;4.20;;;12.00;99.90;;;;;;4934561;29;20235;-84
2021/03/29 08:54:58;;;;;;;8.20;3.47;;;12.10;99.90;;;;;;4926393;29;20204;-83
2021/03/29 08:57:45;;;;;;;12.43;4.30;;;12.30;99.90;;;;;;4934381;29;20227;-84
2021/03/29 09:00:33;;;;;;;9.13;3.53;;;12.40;99.90;;;;;;4936987;29;20210;-83
2021/03/29 09:03:21;;;;;;;9.60;4.07;;;12.50;99.90;;;;;;4937153;29;20276;-84
2021/03/29 09:06:16;;;;;;;9.00;3.70;;;12.60;99.90;;;;;;4938761;29;20214;-84
2021/03/29 09:09:11;;;;;;;7.97;3.63;;;12.70;99.90;;;;;;4934639;29;20223;-84
2021/03/29 09:11:56;;;;;;;11.30;4.40;;;12.80;99.90;;;;;;4937223;29;20593;-83
2021/03/29 09:14:41;;;;;;;10.53;4.37;;;12.90;99.90;;;;;;4935697;29;20254;-84
2021/03/29 09:17:31;;;;;;;9.43;4.00;;;13.10;99.90;;;;;;4937380;29;20224;-84
2021/03/29 09:20:21;;;;;;;11.77;4.80;;;13.20;99.90;;;;;;4935731;29;20259;-80
2021/03/29 09:23:08;;;;;;;6.83;3.13;;;13.30;99.90;;;;;;4934809;29;20215;-81
2021/03/29 09:25:53;;;;;;;7.37;3.40;;;13.50;99.90;;;;;;4937206;29;20258;-80
2021/03/29 09:28:44;;;;;;;11.17;3.77;;;13.70;99.90;;;;;;4932492;29;20213;-81
2021/03/29 09:31:33;;;;;;;6.57;3.27;;;14.30;99.90;;;;;;4936331;29;20231;-82
2021/03/29 09:34:17;;;;;;;9.20;3.70;;;14.90;99.90;;;;;;4930310;29;20213;-81
2021/03/29 09:37:03;;;;;;;9.57;3.80;;;15.60;99.90;;;;;;4927921;29;20276;-81
2021/03/29 09:39:56;;;;;;;9.30;3.30;;;16.30;99.90;;;;;;4939267;29;20218;-80
2021/03/29 09:42:43;;;;;;;7.97;3.37;;;17.20;99.90;;;;;;4947830;29;20283;-81
2021/03/29 09:45:30;;;;;;;9.57;3.20;;;17.80;99.90;;;;;;4947775;29;20208;-80
2021/03/29 09:48:15;;;;;;;9.17;3.40;;;18.50;99.90;;;;;;4959166;29;20199;-80
2021/03/29 09:51:00;;;;;;;8.13;3.60;;;19.20;99.90;;;;;;4949989;29;20229;-81
2021/03/29 09:53:45;;;;;;;11.13;2.93;;;19.80;99.20;;;;;;4933539;29;20255;-82
2021/03/29 09:56:33;;;;;;;9.53;3.37;;;20.40;98.10;;;;;;4934023;29;20272;-82
2021/03/29 09:59:26;;;;;;;5.00;2.83;;;21.00;96.10;;;;;;4933460;29;20262;-83
2021/03/29 10:02:15;;;;;;;8.53;3.10;;;21.60;94.50;;;;;;4914159;29;20232;-82
2021/03/29 10:05:04;;;;;;;7.80;3.20;;;22.20;90.30;;;;;;4939326;29;20570;-83
2021/03/29 10:07:51;;;;;;;15.83;4.97;;;22.80;88.70;;;;;;4938403;29;20206;-82
2021/03/29 10:10:36;;;;;;;3.97;2.33;;;23.30;83.00;;;;;;4941553;29;20256;-83
2021/03/29 10:13:31;;;;;;;9.90;3.17;;;23.90;82.70;;;;;;4935362;29;20203;-83
2021/03/29 10:16:22;;;;;;;7.47;2.40;;;24.40;78.00;;;;;;4939584;29;20209;-83
2021/03/29 10:19:09;;;;;;;9.50;2.97;;;24.90;77.60;;;;;;4932862;29;20281;-83
2021/03/29 10:22:09;;;;;;;6.90;2.73;;;25.40;74.90;;;;;;4932928;29;20245;-83
2021/03/29 10:25:05;;;;;;;5.60;2.97;;;25.90;73.50;;;;;;4924645;29;20577;-82
2021/03/29 10:27:52;;;;;;;6.17;3.13;;;26.40;70.80;;;;;;4926329;29;20225;-82
2021/03/29 10:30:37;;;;;;;8.27;3.23;;;26.80;64.80;;;;;;4940041;29;20282;-83
2021/03/29 10:33:22;;;;;;;7.03;2.97;;;27.20;63.70;;;;;;4931376;29;20224;-83
2021/03/29 10:36:13;;;;;;;7.18;3.22;;;27.60;60.80;;;;;;4933705;29;20363;-83
2021/03/29 10:38:58;;;;;;;6.28;2.90;;;28.00;61.00;;;;;;4932745;29;20670;-83
2021/03/29 10:41:43;;;;;;;4.63;2.70;;;28.30;59.10;;;;;;4925046;29;20243;-83
2021/03/29 10:44:28;;;;;;;6.50;2.92;;;28.50;57.40;;;;;;4932661;29;20247;-83
2021/03/29 10:47:14;;;;;;;6.70;3.30;;;28.90;56.80;;;;;;4933507;29;20253;-84
2021/03/29 10:49:59;;;;;;;5.18;2.42;;;29.10;54.20;;;;;;4935875;29;20702;-83
2021/03/29 10:52:44;;;;;;;6.43;2.85;;;29.30;55.50;;;;;;4939833;29;20214;-82
2021/03/29 10:55:29;;;;;;;10.55;2.97;;;29.50;53.40;;;;;;4942003;28;20210;-81
2021/03/29 10:58:15;;;;;;;8.23;3.30;;;29.70;51.70;;;;;;4953166;29;20247;-81
2021/03/29 11:01:00;;;;;;;10.77;3.38;;;29.90;55.50;;;;;;4936176;29;20234;-81
2021/03/29 11:03:46;;;;;;;6.40;2.78;;;30.40;50.80;;;;;;4926450;29;20234;-83
2021/03/29 11:06:31;;;;;;;6.13;2.53;;;30.40;52.80;;;;;;4937883;29;20624;-84
2021/03/29 11:09:16;;;;;;;6.90;2.80;;;30.60;54.20;;;;;;4929545;28;20252;-83
2021/03/29 11:12:01;;;;;;;7.43;3.13;;;30.90;48.90;;;;;;4934721;29;20232;-84
2021/03/29 11:14:46;;;;;;;6.45;3.03;;;30.80;49.30;;;;;;4934990;29;20593;-84
2021/03/29 11:17:33;;;;;;;7.78;3.33;;;30.90;49.20;;;;;;4927194;29;20208;-85
2021/03/29 11:20:19;;;;;;;8.43;3.42;;;31.10;51.30;;;;;;4923517;29;20219;-85
2021/03/29 11:23:04;;;;;;;9.60;3.60;;;31.30;48.10;;;;;;4919062;29;20222;-86
2021/03/29 11:25:49;;;;;;;6.72;3.03;;;31.40;47.30;;;;;;4927607;29;20270;-85
2021/03/29 11:28:34;;;;;;;8.35;3.13;;;31.70;45.70;;;;;;4936640;29;20229;-85
2021/03/29 11:31:20;;;;;;;6.38;3.10;;;31.80;46.00;;;;;;4934509;29;20313;-85
2021/03/29 11:34:06;;;;;;;8.27;3.15;;;32.00;45.40;;;;;;4936618;29;20222;-85
2021/03/29 11:36:52;;;;;;;8.52;3.67;;;31.90;44.60;;;;;;4934511;29;20219;-85
2021/03/29 11:39:37;;;;;;;7.85;2.83;;;32.20;45.00;;;;;;4941950;29;20242;-86
2021/03/29 11:42:22;;;;;;;7.60;3.35;;;32.30;46.00;;;;;;4943107;29;20226;-85
2021/03/29 11:45:09;;;;;;;5.47;2.97;;;32.30;44.80;;;;;;4935673;29;20218;-84
2021/03/29 11:47:54;;;;;;;6.13;3.13;;;32.40;44.70;;;;;;4936426;29;20605;-85
2021/03/29 11:50:39;;;;;;;5.75;2.55;;;32.50;47.20;;;;;;4938935;29;20990;-86
2021/03/29 11:53:25;;;;;;;6.25;2.72;;;32.50;47.70;;;;;;4937760;28;20705;-86
2021/03/29 11:56:10;;;;;;;8.60;3.28;;;32.60;44.20;;;;;;4937413;29;20221;-85
2021/03/29 11:58:55;;;;;;;5.30;3.10;;;32.70;47.50;;;;;;4928963;29;20215;-86
2021/03/29 12:01:42;;;;;;;6.72;2.50;;;32.90;43.60;;;;;;4934151;29;20237;-85
2021/03/29 12:04:32;;;;;;;9.20;3.42;;;33.00;45.90;;;;;;4926862;29;20259;-85
2021/03/29 12:07:25;;;;;;;5.82;3.13;;;33.20;43.70;;;;;;4937197;29;20660;-86
2021/03/29 12:13:18;;;;;;;6.50;2.80;;;33.50;43.00;;;;;;4927567;29;20707;-86
2021/03/29 12:16:04;;;;;;;11.13;3.15;;;33.80;41.00;;;;;;4930955;29;20246;-86
2021/03/29 12:18:52;;;;;;;7.57;3.22;;;34.00;41.40;;;;;;4928987;29;20217;-86
2021/03/29 12:21:37;;;;;;;8.18;2.97;;;34.20;41.70;;;;;;4919696;29;20223;-86
2021/03/29 12:24:23;;;;;;;5.53;2.40;;;34.30;40.60;;;;;;4928199;29;20266;-86
2021/03/29 12:27:12;;;;;;;5.35;3.13;;;34.50;40.30;;;;;;4930983;29;20620;-86
2021/03/29 12:30:03;;;;;;;6.53;3.30;;;34.70;40.80;;;;;;4933000;29;20304;-86
2021/03/29 12:32:48;;;;;;;5.95;3.25;;;34.90;40.30;;;;;;4931304;29;20210;-86
2021/03/29 12:35:34;;;;;;;9.65;2.92;;;35.10;40.40;;;;;;4929897;29;20250;-86
2021/03/29 12:38:23;;;;;;;5.22;2.80;;;35.10;40.20;;;;;;4919956;29;20259;-86
2021/03/29 12:41:09;;;;;;;4.72;2.55;;;35.30;38.40;;;;;;4929320;29;20234;-86
2021/03/29 12:44:00;;;;;;;5.53;3.00;;;35.40;38.60;;;;;;4934593;29;20295;-86
2021/03/29 12:46:48;;;;;;;5.68;2.80;;;35.60;38.00;;;;;;4937120;29;20638;-87
2021/03/29 12:49:33;;;;;;;4.72;2.67;;;35.70;37.40;;;;;;4926473;29;20311;-87
2021/03/29 12:52:19;;;;;;;6.75;3.20;;;35.80;38.00;;;;;;4934741;29;20662;-84
2021/03/29 12:55:06;;;;;;;3.97;2.58;;;36.00;36.80;;;;;;4939761;29;20266;-84
2021/03/29 12:57:52;;;;;;;7.85;3.15;;;36.00;39.20;;;;;;4932593;29;20223;-86
2021/03/29 13:00:38;;;;;;;12.38;2.80;;;36.10;38.30;;;;;;4937355;29;20214;-84
2021/03/29 13:03:30;;;;;;;6.05;2.47;;;36.20;45.00;;;;;;4939305;29;20218;-82
2021/03/29 13:06:21;;;;;;;7.28;3.08;;;36.20;38.30;;;;;;4942697;29;20596;-84
2021/03/29 13:09:11;;;;;;;10.43;3.83;;;36.10;37.00;;;;;;4935008;29;20559;-84
2021/03/29 13:11:57;;;;;;;10.90;3.35;;;36.20;39.10;;;;;;4937555;29;20291;-85
2021/03/29 13:14:59;;;;;;;8.60;2.95;;;36.30;37.10;;;;;;4942837;29;20267;-84
2021/03/29 13:17:45;;;;;;;4.68;2.72;;;36.40;37.20;;;;;;4944909;29;20458;-84
2021/03/29 13:20:30;;;;;;;7.13;2.60;;;36.40;37.80;;;;;;4936506;29;20222;-84
2021/03/29 13:23:33;;;;;;;3.90;2.65;;;36.50;38.50;;;;;;4933492;29;20224;-84
2021/03/29 13:26:19;;;;;;;8.15;3.00;;;36.50;39.10;;;;;;4937205;29;20742;-82
2021/03/29 13:29:04;;;;;;;6.50;3.10;;;36.60;37.00;;;;;;4927243;29;20688;-85
2021/03/29 13:31:49;;;;;;;6.20;2.97;;;36.60;35.60;;;;;;4941240;28;20310;-81
2021/03/29 13:34:35;;;;;;;6.82;3.08;;;36.70;35.50;;;;;;4939720;29;20244;-81
2021/03/29 13:37:20;;;;;;;15.57;4.70;;;36.70;37.50;;;;;;4931438;29;20330;-81
2021/03/29 13:40:07;;;;;;;6.07;3.00;;;36.80;37.50;;;;;;4932269;29;20665;-80
2021/03/29 13:42:52;;;;;;;5.93;2.83;;;36.70;34.80;;;;;;4929135;29;20212;-80
2021/03/29 13:45:38;;;;;;;6.43;3.10;;;36.70;37.80;;;;;;4929582;29;20211;-80
2021/03/29 13:48:22;;;;;;;6.95;2.75;;;36.70;34.60;;;;;;4935701;29;20234;-80
2021/03/29 13:51:12;;;;;;;6.45;3.28;;;36.60;35.20;;;;;;4933999;29;20331;-80
2021/03/29 13:54:06;;;;;;;5.55;3.13;;;36.50;36.20;;;;;;4940253;29;20267;-80
2021/03/29 13:56:51;;;;;;;6.00;3.40;;;36.30;34.80;;;;;;4940108;29;20210;-80
2021/03/29 13:59:36;;;;;;;7.00;2.70;;;36.20;34.40;;;;;;4936584;29;20258;-81
2021/03/29 14:02:21;;;;;;;6.88;2.90;;;36.00;36.20;;;;;;4935398;29;20279;-81
2021/03/29 14:05:08;;;;;;;6.00;3.28;;;35.90;35.60;;;;;;4932351;29;20213;-81
2021/03/29 14:07:54;;;;;;;6.03;3.05;;;35.80;37.50;;;;;;4941080;29;20759;-79
2021/03/29 14:10:40;;;;;;;6.13;2.83;;;35.70;37.90;;;;;;4937839;29;20254;-80
2021/03/29 14:13:25;;;;;;;7.82;3.40;;;35.70;37.40;;;;;;4942751;29;20215;-79
2021/03/29 14:16:11;;;;;;;5.43;2.88;;;35.70;34.40;;;;;;4938412;29;20255;-80
2021/03/29 14:18:57;;;;;;;6.05;3.17;;;35.70;35.00;;;;;;4942690;29;20213;-80
2021/03/29 14:21:42;;;;;;;8.07;3.10;;;35.50;36.10;;;;;;4932451;29;20234;-80
2021/03/29 14:24:27;;;;;;;3.20;2.85;;;35.40;37.10;;;;;;4934442;29;20214;-81
2021/03/29 14:27:13;;;;;;;6.20;2.50;;;35.30;35.20;;;;;;4929658;29;20224;-79
2021/03/29 14:29:58;;;;;;;6.47;3.00;;;35.20;36.20;;;;;;4929536;29;20725;-79
2021/03/29 14:32:43;;;;;;;8.40;3.10;;;35.10;35.80;;;;;;4930227;29;20246;-79
2021/03/29 14:35:31;;;;;;;7.72;2.80;;;34.90;37.50;;;;;;4927027;29;20640;-79